Terminal Aerodrome Forecast
Issued by NWS North Platte, NE

Home | Current Version | Previous Version | Graphics & Text | Print | Product List | Glossary On
Versions: 1 2 3 4 5 6 7 8 9 10 11 12 13 14 15 16 17 18 19
000
FTUS43 KLBF 230528
TAFVTN
TAF
KVTN 230528Z 2306/2406 27005KT P6SM SCT020 BKN060
      TEMPO 2306/2309 BKN020
     FM230900 29006KT P6SM BKN060
     FM231700 32005KT P6SM SCT200
     FM232300 07004KT P6SM SCT250
     FM240200 12005KT P6SM BKN100
     FM240500 14005KT P6SM BKN025=

USA.gov is the U.S. government's official web portal to all federal, state and local government web resources and services.